createdAt,value
2022-12-08T05:24:27.774Z,1.14
2022-12-08T05:27:30.128Z,1.31
2022-12-08T05:30:32.171Z,1.24
2022-12-08T05:33:34.524Z,1.26
2022-12-08T05:36:36.568Z,1.14
2022-12-08T05:39:38.936Z,1.00
2022-12-08T05:42:41.052Z,1.18
2022-12-08T05:45:43.453Z,1.21
2022-12-08T05:48:45.682Z,1.33
2022-12-08T05:51:48.032Z,1.46
2022-12-08T05:54:50.099Z,1.67
2022-12-08T05:57:52.420Z,1.92
2022-12-08T06:00:54.500Z,1.70
2022-12-08T06:04:01.477Z,1.62
2022-12-08T06:07:06.159Z,1.46
2022-12-08T06:10:08.748Z,1.68
2022-12-08T06:13:11.545Z,1.58
2022-12-08T06:16:14.029Z,1.44
2022-12-08T06:19:16.265Z,1.64
2022-12-08T06:22:18.637Z,1.59
2022-12-08T06:25:20.796Z,1.56
2022-12-08T06:28:23.163Z,1.51
2022-12-08T06:31:26.994Z,1.35
2022-12-08T06:34:29.365Z,1.35
2022-12-08T06:37:31.885Z,1.58
2022-12-08T06:40:34.235Z,1.45
2022-12-08T06:43:36.411Z,1.42
2022-12-08T06:46:38.712Z,1.56
2022-12-08T06:49:41.869Z,1.79
2022-12-08T06:52:56.891Z,1.91
2022-12-08T06:56:04.110Z,1.99
2022-12-08T06:59:06.406Z,2.04
2022-12-08T07:02:09.626Z,2.23
2022-12-08T07:05:12.129Z,2.33
2022-12-08T07:08:14.432Z,2.28
2022-12-08T07:11:21.463Z,2.34
2022-12-08T07:14:24.900Z,2.47
2022-12-08T07:17:27.284Z,2.48
2022-12-08T07:20:29.454Z,2.47
2022-12-08T07:23:31.991Z,2.59
2022-12-08T07:26:34.109Z,2.43
2022-12-08T07:29:36.485Z,2.50
2022-12-08T07:32:39.296Z,2.33
2022-12-08T07:35:46.348Z,2.60
2022-12-08T07:38:53.195Z,2.64
2022-12-08T07:41:55.516Z,2.47
2022-12-08T07:44:57.747Z,2.56
2022-12-08T07:48:00.245Z,2.74
2022-12-08T07:51:04.052Z,2.86
2022-12-08T07:54:06.473Z,2.89
2022-12-08T07:57:09.796Z,2.86
2022-12-08T08:00:12.737Z,3.04
2022-12-08T08:03:15.205Z,3.09
2022-12-08T08:06:17.415Z,3.30
2022-12-08T08:09:19.790Z,3.30
2022-12-08T08:12:31.373Z,3.46
2022-12-08T08:15:34.856Z,3.35
2022-12-08T08:18:37.754Z,3.40
2022-12-08T08:21:47.677Z,3.49
2022-12-08T08:24:49.811Z,3.58
2022-12-08T08:27:52.217Z,3.67
2022-12-08T08:30:54.566Z,3.72
2022-12-08T08:33:57.247Z,3.85
2022-12-08T08:36:59.402Z,3.94
2022-12-08T08:40:02.332Z,4.10
2022-12-08T08:43:06.456Z,4.31
2022-12-08T08:46:09.781Z,4.64
2022-12-08T08:49:11.893Z,4.85
2022-12-08T08:52:14.326Z,4.95
2022-12-08T08:55:17.281Z,5.16
2022-12-08T08:58:19.772Z,5.03
2022-12-08T09:01:25.068Z,5.21
2022-12-08T09:04:27.508Z,5.37
2022-12-08T09:07:29.633Z,5.57
2022-12-08T09:10:32.193Z,5.46
2022-12-08T09:13:34.476Z,5.43
2022-12-08T09:16:42.344Z,5.37
2022-12-08T09:19:44.843Z,5.15
2022-12-08T09:22:47.197Z,5.35
2022-12-08T09:25:49.315Z,5.24
2022-12-08T09:28:53.516Z,5.18
2022-12-08T09:31:56.291Z,5.27
2022-12-08T09:34:58.663Z,5.09
2022-12-08T09:38:00.730Z,5.01
2022-12-08T09:41:12.739Z,5.00
2022-12-08T09:44:17.709Z,5.01
2022-12-08T09:47:35.351Z,5.15
2022-12-08T09:50:52.471Z,5.19
2022-12-08T09:54:03.968Z,5.44
2022-12-08T09:57:13.119Z,5.67
2022-12-08T10:00:16.050Z,5.55
2022-12-08T10:03:20.353Z,5.63
2022-12-08T10:06:32.063Z,5.62
2022-12-08T10:13:21.460Z,5.51
2022-12-08T10:16:38.847Z,5.42
2022-12-08T10:19:43.044Z,5.44
2022-12-08T10:22:50.743Z,5.26
2022-12-08T10:26:00.830Z,5.32
2022-12-08T10:29:03.248Z,5.61
2022-12-08T10:32:34.582Z,5.72
2022-12-08T10:35:48.866Z,5.66
2022-12-08T10:38:50.940Z,5.60
2022-12-08T10:41:54.878Z,5.96
2022-12-08T10:45:29.181Z,5.93
2022-12-08T10:48:34.655Z,5.94
2022-12-08T10:51:40.033Z,5.66
2022-12-08T10:54:42.661Z,5.67
2022-12-08T10:57:45.198Z,6.04
2022-12-08T11:00:47.768Z,6.05
2022-12-08T11:03:51.425Z,5.96
2022-12-08T11:06:53.817Z,5.79
2022-12-08T11:09:58.170Z,5.73
2022-12-08T11:13:03.552Z,5.70
2022-12-08T11:16:07.608Z,5.75
2022-12-08T11:19:16.414Z,5.62
2022-12-08T11:22:39.648Z,5.48
2022-12-08T11:25:42.036Z,5.60
2022-12-08T11:28:44.259Z,5.57
2022-12-08T11:32:07.766Z,5.66
2022-12-08T11:35:20.680Z,5.58
2022-12-08T11:38:26.244Z,5.67
2022-12-08T11:41:38.754Z,5.81
2022-12-08T11:44:49.237Z,5.80
2022-12-08T11:48:03.885Z,5.83
2022-12-08T11:51:29.699Z,5.75
2022-12-08T11:54:42.931Z,5.87
2022-12-08T11:57:45.816Z,5.87
2022-12-08T12:00:50.707Z,5.96
2022-12-08T12:04:17.227Z,5.97
2022-12-08T12:07:54.904Z,5.88
2022-12-08T12:11:05.228Z,6.03
2022-12-08T12:14:44.905Z,5.95
2022-12-08T12:17:59.516Z,5.97
2022-12-08T12:21:13.361Z,5.82
2022-12-08T12:24:26.089Z,5.70
2022-12-08T12:27:40.292Z,5.49
2022-12-08T12:31:15.065Z,5.24
2022-12-08T12:34:23.271Z,5.34
2022-12-08T12:37:42.032Z,5.31
2022-12-08T12:40:44.541Z,5.31
2022-12-08T12:44:06.906Z,5.24
2022-12-08T12:47:14.694Z,5.47
2022-12-08T12:50:49.446Z,5.43
2022-12-08T12:53:52.081Z,5.09
2022-12-08T12:56:56.801Z,5.23
2022-12-08T13:00:01.658Z,5.57
2022-12-08T13:03:04.161Z,5.58
2022-12-08T13:06:10.039Z,5.67
2022-12-08T13:09:29.067Z,5.61
2022-12-08T13:12:31.160Z,5.53
2022-12-08T13:15:48.547Z,5.55
2022-12-08T13:18:56.190Z,5.52
2022-12-08T13:21:59.123Z,5.69
2022-12-08T13:25:38.939Z,5.66
2022-12-08T13:28:59.412Z,5.62
2022-12-08T13:32:03.040Z,5.59
2022-12-08T13:35:06.085Z,5.63
2022-12-08T13:38:08.939Z,5.76
2022-12-08T13:41:33.195Z,5.58
2022-12-08T13:48:30.102Z,5.64
2022-12-08T13:56:30.745Z,5.81
2022-12-08T13:58:32.546Z,5.74
2022-12-08T14:01:44.768Z,5.66
2022-12-08T14:05:17.486Z,5.61
2022-12-08T14:08:57.477Z,5.67
2022-12-08T14:12:18.444Z,5.66
2022-12-08T14:15:21.237Z,5.62
2022-12-08T14:18:32.901Z,5.63
2022-12-08T14:21:36.383Z,5.55
2022-12-08T14:24:39.868Z,5.55
2022-12-08T14:27:43.212Z,5.55
2022-12-08T14:30:48.588Z,5.63
2022-12-08T14:33:56.579Z,5.56
2022-12-08T14:36:58.979Z,5.53
2022-12-08T14:40:05.511Z,5.40
2022-12-08T14:43:08.047Z,5.24
2022-12-08T14:46:21.620Z,5.14
2022-12-08T14:49:35.587Z,5.25
2022-12-08T14:52:44.015Z,5.24
2022-12-08T14:55:48.280Z,5.27
2022-12-08T14:59:04.073Z,5.23
2022-12-08T15:02:15.521Z,5.22
2022-12-08T15:05:20.714Z,5.20
2022-12-08T15:08:23.501Z,5.21
2022-12-08T15:11:34.878Z,5.19
2022-12-08T15:14:41.128Z,5.11
2022-12-08T15:18:04.715Z,5.04
2022-12-08T15:21:09.517Z,5.06
2022-12-08T15:24:13.472Z,5.05
2022-12-08T15:27:21.646Z,5.10
2022-12-08T15:30:26.293Z,5.13
2022-12-08T15:33:28.658Z,5.08
2022-12-08T15:36:30.787Z,5.11
2022-12-08T15:39:36.119Z,5.11
2022-12-08T15:42:38.177Z,5.20
2022-12-08T15:46:00.434Z,5.24
2022-12-08T15:49:03.128Z,5.11
2022-12-08T15:52:11.867Z,5.12
2022-12-08T15:55:38.752Z,5.10
2022-12-08T15:58:58.084Z,5.11
2022-12-08T16:02:00.651Z,5.22
2022-12-08T16:05:41.532Z,5.31
2022-12-08T16:08:45.066Z,5.28
2022-12-08T16:12:08.952Z,4.99
2022-12-08T16:18:37.837Z,4.99
2022-12-08T16:22:17.707Z,4.95
2022-12-08T16:25:17.629Z,4.99
2022-12-08T16:28:52.847Z,4.97
2022-12-08T16:31:43.787Z,5.01
2022-12-08T16:34:46.023Z,4.98
2022-12-08T16:37:48.677Z,5.03
2022-12-08T16:41:09.104Z,5.03
2022-12-08T16:44:11.397Z,5.02
2022-12-08T16:47:13.445Z,4.94
2022-12-08T16:50:18.904Z,4.98
2022-12-08T16:53:20.958Z,4.96
